Time;durP1;ratioP1;P1;durP2;ratioP2;P2;SDS_P1;SDS_P2;PMS_P1;PMS_P2;Temp;Humidity;BMP_temperature;BMP_pressure;BME280_temperature;BME280_humidity;BME280_pressure;Samples;Min_cycle;Max_cycle;Signal;HPM_P1;HPM_P2
2023/05/18 00:01:58;;;;;;;5.50;3.10;;;;;;;;;;5012329;28;20428;-43
2023/05/18 00:04:24;;;;;;;5.30;3.63;;;;;;;;;;5012201;28;20782;-44
2023/05/18 00:06:55;;;;;;;4.40;3.07;;;;;;;;;;5011873;28;20806;-43
2023/05/18 00:09:22;;;;;;;6.40;3.77;;;;;;;;;;5012258;28;20494;-44
2023/05/18 00:11:48;;;;;;;6.07;3.30;;;;;;;;;;5012247;28;20415;-43
2023/05/18 00:14:14;;;;;;;8.50;3.50;;;;;;;;;;5011166;28;20434;-43
2023/05/18 00:16:40;;;;;;;8.97;3.50;;;;;;;;;;5010810;28;20447;-43
2023/05/18 00:19:06;;;;;;;4.93;2.93;;;;;;;;;;5012043;28;20421;-43
2023/05/18 00:21:34;;;;;;;6.37;3.23;;;;;;;;;;5012074;28;20845;-44
2023/05/18 00:24:00;;;;;;;7.10;3.53;;;;;;;;;;5016425;28;20463;-44
2023/05/18 00:26:26;;;;;;;6.40;3.43;;;;;;;;;;5011680;28;20439;-44
2023/05/18 00:28:52;;;;;;;7.80;3.53;;;;;;;;;;5011343;28;20465;-43
2023/05/18 00:31:18;;;;;;;7.37;4.30;;;;;;;;;;5011849;28;20544;-44
2023/05/18 00:33:44;;;;;;;8.37;4.20;;;;;;;;;;5012046;28;20515;-43
2023/05/18 00:36:10;;;;;;;8.67;3.77;;;;;;;;;;5011505;28;20417;-43
2023/05/18 00:38:36;;;;;;;11.40;3.97;;;;;;;;;;5011698;28;20429;-43
2023/05/18 00:41:02;;;;;;;7.93;4.57;;;;;;;;;;5011825;28;20422;-44
2023/05/18 00:43:28;;;;;;;7.73;3.80;;;;;;;;;;5013306;28;20463;-43
2023/05/18 00:45:54;;;;;;;6.30;4.67;;;;;;;;;;5010302;28;20870;-43
2023/05/18 00:48:20;;;;;;;8.73;3.43;;;;;;;;;;5011832;28;20422;-43
2023/05/18 00:50:46;;;;;;;10.13;3.87;;;;;;;;;;5011671;28;20496;-43
2023/05/18 00:53:12;;;;;;;6.57;4.03;;;;;;;;;;5011915;28;20410;-43
2023/05/18 00:55:38;;;;;;;12.50;3.97;;;;;;;;;;5011540;28;20498;-43
2023/05/18 00:58:04;;;;;;;8.30;4.27;;;;;;;;;;5011485;28;20927;-44
2023/05/18 01:00:32;;;;;;;13.03;4.20;;;;;;;;;;5011142;28;20428;-43
2023/05/18 01:02:59;;;;;;;9.83;3.60;;;;;;;;;;5003489;28;20830;-44
2023/05/18 01:05:24;;;;;;;11.73;4.33;;;;;;;;;;5011113;28;20464;-43
2023/05/18 01:07:51;;;;;;;11.43;3.77;;;;;;;;;;5010454;28;20728;-44
2023/05/18 01:10:18;;;;;;;9.00;4.20;;;;;;;;;;5011236;28;20421;-44
2023/05/18 01:12:56;;;;;;;9.13;4.37;;;;;;;;;;5011555;28;20508;-44
2023/05/18 01:15:25;;;;;;;7.60;4.83;;;;;;;;;;5010416;28;20432;-43
2023/05/18 01:18:06;;;;;;;9.60;4.73;;;;;;;;;;5011181;28;21207;-44
2023/05/18 01:20:39;;;;;;;6.90;3.70;;;;;;;;;;5011359;28;20513;-43
2023/05/18 01:23:23;;;;;;;7.87;4.73;;;;;;;;;;5012741;28;20977;-44
2023/05/18 01:25:49;;;;;;;8.10;4.20;;;;;;;;;;5011241;28;20423;-43
2023/05/18 01:28:16;;;;;;;5.63;4.50;;;;;;;;;;5011163;28;20432;-44
2023/05/18 01:30:42;;;;;;;5.80;3.70;;;;;;;;;;5011405;28;20753;-43
2023/05/18 01:33:09;;;;;;;13.97;4.37;;;;;;;;;;5011471;28;20415;-43
2023/05/18 01:35:36;;;;;;;8.40;4.50;;;;;;;;;;5011256;28;21093;-43
2023/05/18 01:38:02;;;;;;;10.43;4.80;;;;;;;;;;5010876;28;20583;-43
2023/05/18 01:40:31;;;;;;;11.73;5.03;;;;;;;;;;5015051;28;20946;-44
2023/05/18 01:43:01;;;;;;;8.13;4.13;;;;;;;;;;5006890;28;20557;-44
2023/05/18 01:45:28;;;;;;;4.73;4.30;;;;;;;;;;5013874;28;20791;-43
2023/05/18 01:47:56;;;;;;;8.50;4.70;;;;;;;;;;5013800;28;20451;-44
2023/05/18 01:50:24;;;;;;;6.30;4.23;;;;;;;;;;5014750;28;20418;-44
2023/05/18 01:52:52;;;;;;;8.63;5.67;;;;;;;;;;5014707;28;20407;-44
2023/05/18 01:55:19;;;;;;;6.70;4.30;;;;;;;;;;5014638;28;20876;-43
2023/05/18 01:57:45;;;;;;;11.03;5.10;;;;;;;;;;5014399;28;20525;-43
2023/05/18 02:00:12;;;;;;;11.43;4.67;;;;;;;;;;5014597;28;20474;-43
2023/05/18 02:02:38;;;;;;;8.03;4.00;;;;;;;;;;5014445;28;20460;-43
2023/05/18 02:05:06;;;;;;;16.40;5.10;;;;;;;;;;5014529;28;20818;-43
2023/05/18 02:07:32;;;;;;;7.03;4.37;;;;;;;;;;5014008;28;20485;-44
2023/05/18 02:09:58;;;;;;;9.97;4.80;;;;;;;;;;5014546;28;20767;-44
2023/05/18 02:12:24;;;;;;;9.10;4.57;;;;;;;;;;5014637;28;20416;-43
2023/05/18 02:14:50;;;;;;;10.13;4.97;;;;;;;;;;5013329;28;20432;-43
2023/05/18 02:17:16;;;;;;;12.27;5.50;;;;;;;;;;5013724;28;20527;-44
2023/05/18 02:19:42;;;;;;;7.23;5.17;;;;;;;;;;5014056;28;20419;-44
2023/05/18 02:22:08;;;;;;;9.50;5.50;;;;;;;;;;5014421;28;20479;-44
2023/05/18 02:24:35;;;;;;;10.37;4.90;;;;;;;;;;5014097;28;20431;-44
2023/05/18 02:27:00;;;;;;;5.57;4.73;;;;;;;;;;5013983;28;20435;-43
2023/05/18 02:29:27;;;;;;;8.20;5.10;;;;;;;;;;5014016;28;20410;-43
2023/05/18 02:31:52;;;;;;;7.53;5.07;;;;;;;;;;5018582;28;20406;-43
2023/05/18 02:34:20;;;;;;;11.80;4.97;;;;;;;;;;5013863;28;20416;-44
2023/05/18 02:36:47;;;;;;;6.30;5.13;;;;;;;;;;5013582;28;20895;-43
2023/05/18 02:39:13;;;;;;;6.70;4.90;;;;;;;;;;5013748;28;20434;-43
2023/05/18 02:41:39;;;;;;;8.10;4.57;;;;;;;;;;5013943;28;20505;-43
2023/05/18 02:44:05;;;;;;;11.43;4.80;;;;;;;;;;5013711;28;20459;-44
2023/05/18 02:46:32;;;;;;;6.20;4.30;;;;;;;;;;5012381;28;20966;-43
2023/05/18 02:48:58;;;;;;;8.03;4.93;;;;;;;;;;5013158;28;20831;-43
2023/05/18 02:51:24;;;;;;;11.00;4.60;;;;;;;;;;5013203;28;20395;-43
2023/05/18 02:53:50;;;;;;;12.60;5.93;;;;;;;;;;5013823;28;20415;-43
2023/05/18 02:56:16;;;;;;;6.63;4.53;;;;;;;;;;5013193;28;20428;-43
2023/05/18 02:58:43;;;;;;;6.90;4.23;;;;;;;;;;5013459;28;20456;-43
2023/05/18 03:01:11;;;;;;;8.87;4.67;;;;;;;;;;5013447;28;20415;-43
2023/05/18 03:03:37;;;;;;;11.63;4.73;;;;;;;;;;5013262;28;20557;-43
2023/05/18 03:06:03;;;;;;;9.63;5.80;;;;;;;;;;5013103;28;20442;-44
2023/05/18 03:08:30;;;;;;;8.20;6.00;;;;;;;;;;5013508;28;20893;-43
2023/05/18 03:10:56;;;;;;;5.80;5.20;;;;;;;;;;5012900;28;20421;-43
2023/05/18 03:13:22;;;;;;;14.47;5.73;;;;;;;;;;5013236;28;20419;-43
2023/05/18 03:15:49;;;;;;;6.00;5.20;;;;;;;;;;5012028;28;20461;-43
2023/05/18 03:18:15;;;;;;;9.23;5.10;;;;;;;;;;5012901;28;20427;-44
2023/05/18 03:20:42;;;;;;;12.00;5.45;;;;;;;;;;5013129;28;20416;-43
2023/05/18 03:23:08;;;;;;;8.05;5.15;;;;;;;;;;5012086;28;20601;-43
2023/05/18 03:25:36;;;;;;;8.00;5.97;;;;;;;;;;5013262;28;20181;-43
2023/05/18 03:28:02;;;;;;;11.80;5.73;;;;;;;;;;5013151;28;20513;-43
2023/05/18 03:30:28;;;;;;;7.80;5.17;;;;;;;;;;5015527;28;20407;-43
2023/05/18 03:32:53;;;;;;;11.90;5.60;;;;;;;;;;5012800;28;20480;-43
2023/05/18 03:35:19;;;;;;;8.20;5.90;;;;;;;;;;5012553;28;20427;-43
2023/05/18 03:37:45;;;;;;;11.23;5.57;;;;;;;;;;5012383;28;20446;-43
2023/05/18 03:40:13;;;;;;;9.13;4.87;;;;;;;;;;5012768;28;20470;-43
2023/05/18 03:42:42;;;;;;;15.03;7.57;;;;;;;;;;5013705;28;20459;-44
2023/05/18 03:45:09;;;;;;;6.77;5.70;;;;;;;;;;5011703;28;20428;-43
2023/05/18 03:47:35;;;;;;;9.20;5.30;;;;;;;;;;5012380;28;20997;-44
2023/05/18 03:50:01;;;;;;;11.18;5.68;;;;;;;;;;5012683;28;20415;-44
2023/05/18 03:52:28;;;;;;;9.60;5.35;;;;;;;;;;5012507;28;20208;-43
2023/05/18 03:54:55;;;;;;;7.93;7.00;;;;;;;;;;5012494;28;20208;-43
2023/05/18 03:57:21;;;;;;;10.50;5.77;;;;;;;;;;5011947;28;20431;-43
2023/05/18 03:59:47;;;;;;;12.67;5.60;;;;;;;;;;5012296;28;20434;-43
2023/05/18 04:02:15;;;;;;;11.00;5.93;;;;;;;;;;5011579;28;20931;-43
2023/05/18 04:04:44;;;;;;;12.52;6.30;;;;;;;;;;5012393;28;20934;-43
2023/05/18 04:07:10;;;;;;;8.47;6.20;;;;;;;;;;5011990;28;20231;-43
2023/05/18 04:09:36;;;;;;;8.57;6.40;;;;;;;;;;5012225;28;20426;-43
2023/05/18 04:12:02;;;;;;;12.07;6.33;;;;;;;;;;5012168;28;20168;-43
2023/05/18 04:14:31;;;;;;;10.27;5.90;;;;;;;;;;5010637;28;20510;-43
2023/05/18 04:17:03;;;;;;;8.43;5.70;;;;;;;;;;5005355;28;20231;-43
2023/05/18 04:19:29;;;;;;;10.03;6.77;;;;;;;;;;5017219;28;20407;-43
2023/05/18 04:21:55;;;;;;;11.10;6.83;;;;;;;;;;5012144;28;20930;-43
2023/05/18 04:24:21;;;;;;;17.83;7.33;;;;;;;;;;5011960;28;20558;-43
2023/05/18 04:26:48;;;;;;;10.97;6.43;;;;;;;;;;5012153;28;20950;-43
2023/05/18 04:29:14;;;;;;;9.20;6.40;;;;;;;;;;5011998;28;20517;-43
2023/05/18 04:31:41;;;;;;;7.27;5.40;;;;;;;;;;5012011;28;20489;-43
2023/05/18 04:34:07;;;;;;;16.27;6.30;;;;;;;;;;5011924;28;20416;-43
2023/05/18 04:36:34;;;;;;;10.83;7.40;;;;;;;;;;5011525;28;20546;-43
2023/05/18 04:39:02;;;;;;;9.57;6.03;;;;;;;;;;5011783;28;20463;-43
2023/05/18 04:41:28;;;;;;;10.70;7.00;;;;;;;;;;5011784;28;20416;-43
2023/05/18 04:43:54;;;;;;;14.40;6.30;;;;;;;;;;5009409;28;20497;-44
2023/05/18 04:46:21;;;;;;;14.53;6.03;;;;;;;;;;5011375;28;20468;-43
2023/05/18 04:48:48;;;;;;;13.40;5.87;;;;;;;;;;5011043;28;20435;-43
2023/05/18 04:51:16;;;;;;;15.33;7.67;;;;;;;;;;5011745;28;20912;-43
2023/05/18 04:53:44;;;;;;;10.90;6.43;;;;;;;;;;5011847;28;20407;-43
2023/05/18 04:56:12;;;;;;;11.40;6.77;;;;;;;;;;5011624;28;20899;-43
2023/05/18 04:58:40;;;;;;;27.37;6.80;;;;;;;;;;5011686;28;20957;-43
2023/05/18 05:01:06;;;;;;;9.70;6.67;;;;;;;;;;5011650;28;20930;-43
2023/05/18 05:03:32;;;;;;;18.83;6.87;;;;;;;;;;5011584;28;20552;-43
2023/05/18 05:05:58;;;;;;;9.80;6.13;;;;;;;;;;5011467;28;20495;-44
2023/05/18 05:08:24;;;;;;;15.23;7.60;;;;;;;;;;5011449;28;20499;-43
2023/05/18 05:10:50;;;;;;;9.33;7.47;;;;;;;;;;5011462;28;20419;-44
2023/05/18 05:13:16;;;;;;;15.53;8.30;;;;;;;;;;5010763;28;20415;-43
2023/05/18 05:15:42;;;;;;;9.73;6.90;;;;;;;;;;5014754;28;20986;-43
2023/05/18 05:18:08;;;;;;;14.10;7.40;;;;;;;;;;5015240;28;20920;-43
2023/05/18 05:20:34;;;;;;;9.97;6.70;;;;;;;;;;5014787;28;20939;-43
2023/05/18 05:23:00;;;;;;;13.17;7.17;;;;;;;;;;5015208;28;20818;-43
2023/05/18 05:25:26;;;;;;;10.50;7.63;;;;;;;;;;5015127;28;20474;-44
2023/05/18 05:27:52;;;;;;;11.53;7.27;;;;;;;;;;5014803;28;20434;-44
2023/05/18 05:30:18;;;;;;;11.03;6.00;;;;;;;;;;5015428;28;20511;-44
2023/05/18 05:32:44;;;;;;;13.00;6.73;;;;;;;;;;5018875;28;20907;-43
2023/05/18 05:35:10;;;;;;;16.90;7.40;;;;;;;;;;5015546;28;20424;-44
2023/05/18 05:37:36;;;;;;;12.83;7.37;;;;;;;;;;5014486;28;20954;-43
2023/05/18 05:40:04;;;;;;;10.07;7.00;;;;;;;;;;5014893;28;20523;-43
2023/05/18 05:42:30;;;;;;;13.20;7.13;;;;;;;;;;5015109;28;20463;-43
2023/05/18 05:44:56;;;;;;;10.37;6.53;;;;;;;;;;5014038;28;20416;-43
2023/05/18 05:47:22;;;;;;;7.97;6.37;;;;;;;;;;5014462;28;20947;-43
2023/05/18 05:49:48;;;;;;;9.80;7.27;;;;;;;;;;5009811;28;20536;-43
2023/05/18 05:52:14;;;;;;;9.50;6.23;;;;;;;;;;5019614;28;20972;-43
2023/05/18 05:54:41;;;;;;;10.27;6.87;;;;;;;;;;5019172;28;20829;-43
2023/05/18 05:57:07;;;;;;;10.97;6.10;;;;;;;;;;5014283;28;20444;-43
2023/05/18 05:59:33;;;;;;;7.60;5.10;;;;;;;;;;5014247;28;20407;-43
2023/05/18 06:01:59;;;;;;;15.53;6.27;;;;;;;;;;5014635;28;20402;-43
2023/05/18 06:04:24;;;;;;;12.03;6.77;;;;;;;;;;5014514;28;20952;-44
2023/05/18 06:06:50;;;;;;;7.60;5.83;;;;;;;;;;5017112;28;21246;-43
2023/05/18 06:09:17;;;;;;;10.17;5.67;;;;;;;;;;5014443;28;20438;-43
2023/05/18 06:11:43;;;;;;;9.03;6.00;;;;;;;;;;5014439;28;20411;-43
2023/05/18 06:14:09;;;;;;;8.10;5.40;;;;;;;;;;5013422;28;20415;-44
2023/05/18 06:16:35;;;;;;;12.43;5.67;;;;;;;;;;5012232;28;20459;-43
2023/05/18 06:19:02;;;;;;;6.63;5.73;;;;;;;;;;5014246;28;20549;-43
2023/05/18 06:21:28;;;;;;;9.53;5.47;;;;;;;;;;5014253;28;20399;-44
2023/05/18 06:23:55;;;;;;;17.10;5.60;;;;;;;;;;5014020;28;20471;-44
2023/05/18 06:26:21;;;;;;;8.87;5.23;;;;;;;;;;5012842;28;20439;-43
2023/05/18 06:28:48;;;;;;;10.53;4.63;;;;;;;;;;5014322;28;20411;-43
2023/05/18 06:31:14;;;;;;;9.73;5.77;;;;;;;;;;5013105;28;20429;-44
2023/05/18 06:33:40;;;;;;;9.73;4.67;;;;;;;;;;5013786;28;20443;-43
2023/05/18 06:36:06;;;;;;;9.57;5.10;;;;;;;;;;5013500;28;20407;-43
2023/05/18 06:38:32;;;;;;;8.60;5.00;;;;;;;;;;5013613;28;20800;-43
2023/05/18 06:40:58;;;;;;;10.20;5.17;;;;;;;;;;5014001;28;20906;-44
2023/05/18 06:43:27;;;;;;;10.57;4.47;;;;;;;;;;5019916;28;20466;-43
2023/05/18 06:45:54;;;;;;;6.63;4.40;;;;;;;;;;5013057;28;20419;-44
2023/05/18 06:48:20;;;;;;;12.13;5.97;;;;;;;;;;5012829;28;20470;-44
2023/05/18 06:50:46;;;;;;;6.33;5.43;;;;;;;;;;5013529;28;20430;-44
2023/05/18 06:53:12;;;;;;;12.97;4.53;;;;;;;;;;5013845;28;20411;-43
2023/05/18 06:55:38;;;;;;;7.30;4.77;;;;;;;;;;5013378;28;20411;-44
2023/05/18 06:58:04;;;;;;;13.87;5.43;;;;;;;;;;5013358;28;20437;-43
2023/05/18 07:00:30;;;;;;;12.63;5.00;;;;;;;;;;5010012;28;20469;-44
2023/05/18 07:02:56;;;;;;;10.47;4.50;;;;;;;;;;5013269;28;20459;-44
2023/05/18 07:05:22;;;;;;;6.67;4.47;;;;;;;;;;5013285;28;20447;-44
2023/05/18 07:07:48;;;;;;;9.07;4.63;;;;;;;;;;5012903;28;20502;-44
2023/05/18 07:10:14;;;;;;;7.43;4.63;;;;;;;;;;5013316;28;20403;-44
2023/05/18 07:12:40;;;;;;;7.47;5.00;;;;;;;;;;5013268;28;20415;-44
2023/05/18 07:15:06;;;;;;;9.03;4.57;;;;;;;;;;5012421;28;20403;-43
2023/05/18 07:17:32;;;;;;;6.30;4.23;;;;;;;;;;5012801;28;20475;-44
2023/05/18 07:19:58;;;;;;;5.00;4.10;;;;;;;;;;5012358;28;20434;-43
2023/05/18 07:22:24;;;;;;;5.40;4.53;;;;;;;;;;5013173;28;20412;-44
2023/05/18 07:24:50;;;;;;;10.93;5.23;;;;;;;;;;5013035;28;20408;-44
2023/05/18 07:27:16;;;;;;;14.87;5.27;;;;;;;;;;5012659;28;20426;-44
2023/05/18 07:29:42;;;;;;;16.70;5.37;;;;;;;;;;5012975;28;20407;-43
2023/05/18 07:32:08;;;;;;;10.80;4.63;;;;;;;;;;5017212;28;20416;-44
2023/05/18 07:34:34;;;;;;;7.90;5.50;;;;;;;;;;5012840;28;20399;-44
2023/05/18 07:37:00;;;;;;;10.43;4.90;;;;;;;;;;5012206;28;20423;-44
2023/05/18 07:39:28;;;;;;;9.80;5.40;;;;;;;;;;5012789;28;21010;-44
2023/05/18 07:41:54;;;;;;;11.20;5.07;;;;;;;;;;5008595;28;20439;-43
2023/05/18 07:44:20;;;;;;;7.77;4.97;;;;;;;;;;5015230;28;20465;-43
2023/05/18 07:46:46;;;;;;;4.93;3.97;;;;;;;;;;5011074;28;20454;-44
2023/05/18 07:49:12;;;;;;;6.10;5.27;;;;;;;;;;5017928;28;20804;-44
2023/05/18 07:51:38;;;;;;;11.23;4.73;;;;;;;;;;5013093;28;20453;-43
2023/05/18 07:54:04;;;;;;;7.23;4.90;;;;;;;;;;5012683;28;20463;-43
2023/05/18 07:56:30;;;;;;;9.37;4.90;;;;;;;;;;5011970;28;20409;-43
2023/05/18 07:58:56;;;;;;;8.67;5.43;;;;;;;;;;5012498;28;20418;-43
2023/05/18 08:01:28;;;;;;;7.73;4.60;;;;;;;;;;5016962;28;20433;-43
2023/05/18 08:03:55;;;;;;;5.47;3.93;;;;;;;;;;5012272;28;20487;-43
2023/05/18 08:06:21;;;;;;;5.53;3.50;;;;;;;;;;5011960;28;20495;-43
2023/05/18 08:08:47;;;;;;;9.60;3.43;;;;;;;;;;5012249;28;20393;-42
2023/05/18 08:11:13;;;;;;;12.30;3.43;;;;;;;;;;5012717;28;20407;-42
2023/05/18 08:13:39;;;;;;;7.07;3.77;;;;;;;;;;5012126;28;20386;-44
2023/05/18 08:16:05;;;;;;;7.37;3.57;;;;;;;;;;5010891;28;20424;-42
2023/05/18 08:18:31;;;;;;;12.73;4.13;;;;;;;;;;5011323;28;20402;-45
2023/05/18 08:20:57;;;;;;;11.77;4.57;;;;;;;;;;5012300;28;20792;-43
2023/05/18 08:23:24;;;;;;;12.30;4.33;;;;;;;;;;5012001;28;20452;-43
2023/05/18 08:25:50;;;;;;;6.93;3.20;;;;;;;;;;5011898;28;20389;-43
2023/05/18 08:28:16;;;;;;;10.50;3.67;;;;;;;;;;5011588;28;20491;-43
2023/05/18 08:30:42;;;;;;;5.17;3.40;;;;;;;;;;5011894;28;20470;-42
2023/05/18 08:33:08;;;;;;;9.17;3.60;;;;;;;;;;5016594;28;20380;-42
2023/05/18 08:35:34;;;;;;;6.67;3.93;;;;;;;;;;5011817;28;20419;-43
2023/05/18 08:38:00;;;;;;;4.87;3.30;;;;;;;;;;5011592;28;20408;-43
2023/05/18 08:40:30;;;;;;;7.83;3.90;;;;;;;;;;5011791;28;20492;-43
2023/05/18 08:43:03;;;;;;;8.20;3.40;;;;;;;;;;5011741;28;20806;-42
2023/05/18 08:45:32;;;;;;;10.63;4.30;;;;;;;;;;5010774;28;20927;-43
2023/05/18 08:47:59;;;;;;;8.53;3.60;;;;;;;;;;5003549;28;20463;-43
2023/05/18 08:50:25;;;;;;;7.10;4.63;;;;;;;;;;5010727;28;20507;-43
2023/05/18 08:52:54;;;;;;;9.23;3.60;;;;;;;;;;5011815;28;20379;-43
2023/05/18 08:55:20;;;;;;;5.57;3.60;;;;;;;;;;5011509;28;20428;-44
2023/05/18 08:57:53;;;;;;;4.33;2.83;;;;;;;;;;5009842;28;20443;-44
2023/05/18 09:00:19;;;;;;;6.97;3.70;;;;;;;;;;5010724;28;20428;-44
2023/05/18 09:02:46;;;;;;;9.23;3.70;;;;;;;;;;5010513;28;20446;-43
2023/05/18 09:05:13;;;;;;;5.63;3.30;;;;;;;;;;5012185;28;20429;-43
2023/05/18 09:07:41;;;;;;;5.10;3.20;;;;;;;;;;5011519;28;20434;-43
2023/05/18 09:10:09;;;;;;;9.10;3.17;;;;;;;;;;5011439;28;20410;-44
2023/05/18 09:12:35;;;;;;;5.57;2.90;;;;;;;;;;5011273;28;20413;-44
2023/05/18 09:15:02;;;;;;;4.27;2.93;;;;;;;;;;5009455;28;20472;-44
2023/05/18 09:17:28;;;;;;;12.03;3.73;;;;;;;;;;5009052;28;20459;-43
2023/05/18 09:19:54;;;;;;;6.37;3.57;;;;;;;;;;5009843;28;20435;-44
2023/05/18 09:22:20;;;;;;;5.67;4.07;;;;;;;;;;5009206;28;20417;-43
2023/05/18 09:24:48;;;;;;;4.97;3.30;;;;;;;;;;5011164;28;20514;-43
2023/05/18 09:27:14;;;;;;;9.40;3.37;;;;;;;;;;5011297;28;20466;-42
2023/05/18 09:29:53;;;;;;;6.77;3.27;;;;;;;;;;5011432;28;20417;-43
2023/05/18 09:32:19;;;;;;;7.47;3.20;;;;;;;;;;5015778;28;20407;-44
2023/05/18 09:34:47;;;;;;;4.37;2.53;;;;;;;;;;5011012;28;20438;-44
2023/05/18 09:37:16;;;;;;;10.17;3.63;;;;;;;;;;5010704;28;20439;-45
2023/05/18 09:39:42;;;;;;;8.80;3.23;;;;;;;;;;5011196;28;20435;-43
2023/05/18 09:42:07;;;;;;;12.13;3.70;;;;;;;;;;5011408;28;20414;-44
2023/05/18 09:44:34;;;;;;;3.93;2.93;;;;;;;;;;5011215;28;20466;-43
2023/05/18 09:47:00;;;;;;;8.23;3.33;;;;;;;;;;5010047;28;20447;-44
2023/05/18 09:49:28;;;;;;;3.13;2.83;;;;;;;;;;5011322;28;20504;-44
2023/05/18 09:51:54;;;;;;;10.13;3.73;;;;;;;;;;5010915;28;20399;-47
2023/05/18 09:54:20;;;;;;;10.40;3.93;;;;;;;;;;5006025;28;20411;-44
2023/05/18 09:56:46;;;;;;;9.23;4.30;;;;;;;;;;5010709;28;20438;-44
2023/05/18 09:59:13;;;;;;;7.80;3.30;;;;;;;;;;5011613;28;20447;-45
2023/05/18 10:01:59;;;;;;;7.27;4.20;;;;;;;;;;5013220;28;20497;-43
2023/05/18 10:04:34;;;;;;;3.63;3.33;;;;;;;;;;5014491;28;20455;-44
2023/05/18 10:07:02;;;;;;;5.53;3.60;;;;;;;;;;5006276;28;20992;-45
2023/05/18 10:09:28;;;;;;;6.93;3.27;;;;;;;;;;5013551;28;20423;-44
2023/05/18 10:11:54;;;;;;;6.40;3.03;;;;;;;;;;5011400;28;20914;-45
2023/05/18 10:14:29;;;;;;;8.10;2.80;;;;;;;;;;5013461;28;20461;-45
2023/05/18 10:16:55;;;;;;;13.53;3.17;;;;;;;;;;5011573;28;20458;-45
2023/05/18 10:19:21;;;;;;;5.70;3.13;;;;;;;;;;5013319;28;20438;-44
2023/05/18 10:21:48;;;;;;;5.00;3.03;;;;;;;;;;5010110;28;20456;-45
2023/05/18 10:24:15;;;;;;;8.17;3.43;;;;;;;;;;5013223;28;20505;-45
2023/05/18 10:26:43;;;;;;;7.93;3.90;;;;;;;;;;5013732;28;20434;-45
2023/05/18 10:29:10;;;;;;;5.97;3.03;;;;;;;;;;5014429;28;20419;-45
2023/05/18 10:31:37;;;;;;;5.70;2.87;;;;;;;;;;5015829;28;20914;-45
2023/05/18 10:34:03;;;;;;;5.30;2.80;;;;;;;;;;5014786;28;20411;-45
2023/05/18 10:36:31;;;;;;;8.10;3.20;;;;;;;;;;5013919;28;20934;-45
2023/05/18 10:38:59;;;;;;;5.60;3.37;;;;;;;;;;5013167;28;20453;-44
2023/05/18 10:41:26;;;;;;;6.83;3.10;;;;;;;;;;5013548;28;20488;-45
2023/05/18 10:43:52;;;;;;;6.20;2.70;;;;;;;;;;5013708;28;20466;-44
2023/05/18 10:46:20;;;;;;;6.63;2.80;;;;;;;;;;5011499;28;20435;-45
2023/05/18 10:48:47;;;;;;;3.33;2.57;;;;;;;;;;5012990;28;20414;-44
2023/05/18 10:51:14;;;;;;;7.10;3.13;;;;;;;;;;5013687;28;20422;-44
2023/05/18 10:53:42;;;;;;;10.00;2.87;;;;;;;;;;5013947;28;20419;-45
2023/05/18 10:56:09;;;;;;;8.37;3.10;;;;;;;;;;5013344;28;20439;-45
2023/05/18 10:58:35;;;;;;;7.90;3.10;;;;;;;;;;5013495;28;20422;-45
2023/05/18 11:01:05;;;;;;;10.23;2.80;;;;;;;;;;5015673;28;20419;-44
2023/05/18 11:03:32;;;;;;;4.80;2.60;;;;;;;;;;5013162;28;20553;-47
2023/05/18 11:06:06;;;;;;;6.43;2.83;;;;;;;;;;5011781;28;20411;-44
2023/05/18 11:08:32;;;;;;;8.07;2.50;;;;;;;;;;5011816;28;20407;-45
2023/05/18 11:11:02;;;;;;;5.90;2.63;;;;;;;;;;5013138;28;20785;-45
2023/05/18 11:13:30;;;;;;;10.03;3.90;;;;;;;;;;5013156;28;20507;-45
2023/05/18 11:15:57;;;;;;;4.20;2.03;;;;;;;;;;5013064;28;20512;-45
2023/05/18 11:18:34;;;;;;;7.13;2.73;;;;;;;;;;5011642;28;20451;-44
2023/05/18 11:21:00;;;;;;;14.17;3.20;;;;;;;;;;5011996;28;20407;-44
2023/05/18 11:23:30;;;;;;;3.67;2.37;;;;;;;;;;5013059;28;20476;-44
2023/05/18 11:26:01;;;;;;;11.67;3.13;;;;;;;;;;5011960;28;20926;-45
2023/05/18 11:28:28;;;;;;;9.00;2.97;;;;;;;;;;5013149;28;20957;-43
2023/05/18 11:30:54;;;;;;;7.70;3.20;;;;;;;;;;5009070;28;20451;-43
2023/05/18 11:33:29;;;;;;;12.40;3.20;;;;;;;;;;5014114;28;20505;-44
2023/05/18 11:35:58;;;;;;;7.20;3.30;;;;;;;;;;5011602;28;21018;-45
2023/05/18 11:38:44;;;;;;;8.90;3.60;;;;;;;;;;5011588;28;20447;-45
2023/05/18 11:41:26;;;;;;;7.80;3.57;;;;;;;;;;5010938;28;20772;-44
2023/05/18 11:44:11;;;;;;;7.07;3.03;;;;;;;;;;5011829;28;20481;-45
2023/05/18 11:46:37;;;;;;;3.03;2.63;;;;;;;;;;5000896;28;20470;-45
2023/05/18 11:49:07;;;;;;;5.73;2.50;;;;;;;;;;5011017;28;20419;-44
2023/05/18 11:51:33;;;;;;;9.93;2.67;;;;;;;;;;5012603;28;20946;-45
2023/05/18 11:54:00;;;;;;;9.10;2.53;;;;;;;;;;5012584;28;20489;-44
2023/05/18 11:56:26;;;;;;;8.20;2.93;;;;;;;;;;5010163;28;20597;-45
2023/05/18 11:59:11;;;;;;;7.33;2.90;;;;;;;;;;5012184;28;20415;-45
2023/05/18 12:01:37;;;;;;;8.00;2.67;;;;;;;;;;5011493;28;20422;-45
2023/05/18 12:04:04;;;;;;;9.50;2.90;;;;;;;;;;5019473;28;20466;-45
2023/05/18 12:06:31;;;;;;;5.97;2.50;;;;;;;;;;5011061;28;20434;-45
2023/05/18 12:08:58;;;;;;;10.57;3.27;;;;;;;;;;5011762;28;20894;-45
2023/05/18 12:11:25;;;;;;;7.93;3.07;;;;;;;;;;5012361;28;20783;-45
2023/05/18 12:13:51;;;;;;;4.97;2.93;;;;;;;;;;5011188;28;20426;-45
2023/05/18 12:16:17;;;;;;;6.03;2.87;;;;;;;;;;5011840;28;20415;-45
2023/05/18 12:18:50;;;;;;;5.20;2.73;;;;;;;;;;5011360;28;20442;-45
2023/05/18 12:21:20;;;;;;;4.83;2.30;;;;;;;;;;5011073;28;20426;-45
2023/05/18 12:23:46;;;;;;;7.60;2.80;;;;;;;;;;5011179;28;20842;-45
2023/05/18 12:26:13;;;;;;;8.23;2.80;;;;;;;;;;5011759;28;20406;-45
2023/05/18 12:28:39;;;;;;;5.77;2.77;;;;;;;;;;5012166;28;20407;-46
2023/05/18 12:31:07;;;;;;;3.57;2.53;;;;;;;;;;5012949;28;20802;-45
2023/05/18 12:33:33;;;;;;;5.20;3.10;;;;;;;;;;5015106;28;20408;-45
2023/05/18 12:35:59;;;;;;;5.07;2.83;;;;;;;;;;5011626;28;20438;-45
2023/05/18 12:38:26;;;;;;;5.70;3.00;;;;;;;;;;5011737;28;20997;-45
2023/05/18 12:40:54;;;;;;;5.60;2.70;;;;;;;;;;5011800;28;20195;-45
2023/05/18 12:43:20;;;;;;;7.03;2.83;;;;;;;;;;5011824;28;20958;-45
2023/05/18 12:45:46;;;;;;;4.17;2.50;;;;;;;;;;5011771;28;20406;-45
2023/05/18 12:48:13;;;;;;;5.97;2.47;;;;;;;;;;5010651;28;20832;-45
2023/05/18 12:50:45;;;;;;;4.23;2.70;;;;;;;;;;5011729;28;20915;-45
2023/05/18 12:53:11;;;;;;;4.10;2.67;;;;;;;;;;5011014;28;20501;-45
2023/05/18 12:55:38;;;;;;;5.47;3.00;;;;;;;;;;5011833;28;20867;-45
2023/05/18 12:58:06;;;;;;;7.93;2.97;;;;;;;;;;5011441;28;20435;-45
2023/05/18 13:00:35;;;;;;;4.40;2.50;;;;;;;;;;5011739;28;20486;-45
2023/05/18 13:03:08;;;;;;;9.27;2.90;;;;;;;;;;5011628;28;20459;-45
2023/05/18 13:05:34;;;;;;;5.73;2.90;;;;;;;;;;5011863;28;20411;-45
2023/05/18 13:08:00;;;;;;;7.50;2.47;;;;;;;;;;5011351;28;20415;-45
2023/05/18 13:10:30;;;;;;;5.03;2.50;;;;;;;;;;5011699;28;20763;-45
2023/05/18 13:13:00;;;;;;;5.93;2.63;;;;;;;;;;5009582;28;20422;-45
2023/05/18 13:15:26;;;;;;;4.70;2.67;;;;;;;;;;5011598;28;20418;-45
2023/05/18 13:17:52;;;;;;;6.07;2.63;;;;;;;;;;5011109;28;20496;-45
2023/05/18 13:20:18;;;;;;;5.90;2.83;;;;;;;;;;5007803;28;20184;-45
2023/05/18 13:22:44;;;;;;;7.37;2.97;;;;;;;;;;5010813;28;20195;-45
2023/05/18 13:25:10;;;;;;;3.13;1.97;;;;;;;;;;5011586;28;20446;-45
2023/05/18 13:27:36;;;;;;;7.13;2.60;;;;;;;;;;5011145;28;20431;-45
2023/05/18 13:30:02;;;;;;;14.03;3.30;;;;;;;;;;5011609;28;20430;-45
2023/05/18 13:32:28;;;;;;;3.57;2.47;;;;;;;;;;5015864;28;20179;-45
2023/05/18 13:34:54;;;;;;;11.20;2.90;;;;;;;;;;5012601;28;20415;-45
2023/05/18 13:37:20;;;;;;;4.63;2.13;;;;;;;;;;5014759;28;20439;-45
2023/05/18 13:39:46;;;;;;;4.67;2.70;;;;;;;;;;5014987;28;20227;-44
2023/05/18 13:42:12;;;;;;;4.87;2.10;;;;;;;;;;5015074;28;20451;-44
2023/05/18 13:44:38;;;;;;;3.27;2.03;;;;;;;;;;5014873;28;20199;-45
2023/05/18 13:47:04;;;;;;;7.23;2.50;;;;;;;;;;5014624;28;20778;-45
2023/05/18 13:49:30;;;;;;;7.87;2.80;;;;;;;;;;5013975;28;20790;-45
2023/05/18 13:51:59;;;;;;;6.70;3.17;;;;;;;;;;5011392;28;20410;-44
2023/05/18 13:54:24;;;;;;;7.33;3.03;;;;;;;;;;5014872;28;20172;-44
2023/05/18 13:56:50;;;;;;;9.63;2.80;;;;;;;;;;5014377;28;20647;-44
2023/05/18 13:59:18;;;;;;;5.70;2.30;;;;;;;;;;5014737;28;20879;-44
2023/05/18 14:01:46;;;;;;;4.97;2.00;;;;;;;;;;5014562;28;20994;-44
2023/05/18 14:04:12;;;;;;;3.40;2.50;;;;;;;;;;5014620;28;20462;-45
2023/05/18 14:06:38;;;;;;;7.83;2.40;;;;;;;;;;5014442;28;20536;-46
2023/05/18 14:09:04;;;;;;;6.00;2.27;;;;;;;;;;5014638;28;20172;-44
2023/05/18 14:11:33;;;;;;;5.90;2.50;;;;;;;;;;5014544;28;20411;-44
2023/05/18 14:13:59;;;;;;;3.10;2.30;;;;;;;;;;5007668;28;20419;-45
2023/05/18 14:16:25;;;;;;;3.03;2.20;;;;;;;;;;5013939;28;20443;-44
2023/05/18 14:18:51;;;;;;;4.10;2.00;;;;;;;;;;5013470;28;20470;-44
2023/05/18 14:21:17;;;;;;;5.77;2.47;;;;;;;;;;5013667;28;20950;-45
2023/05/18 14:23:43;;;;;;;7.50;2.60;;;;;;;;;;5014266;28;20548;-45
2023/05/18 14:26:09;;;;;;;6.47;2.47;;;;;;;;;;5013992;28;20207;-44
2023/05/18 14:28:35;;;;;;;4.83;3.07;;;;;;;;;;5014116;28;20180;-44
2023/05/18 14:31:01;;;;;;;3.67;2.20;;;;;;;;;;5014506;28;20465;-44
2023/05/18 14:33:27;;;;;;;5.47;2.47;;;;;;;;;;5018299;28;20415;-44
2023/05/18 14:35:54;;;;;;;4.60;2.40;;;;;;;;;;5013876;28;20187;-45
2023/05/18 14:38:25;;;;;;;3.73;2.30;;;;;;;;;;5013987;28;20438;-45